Time;durP1;ratioP1;P1;durP2;ratioP2;P2;SDS_P1;SDS_P2;PMS_P1;PMS_P2;Temp;Humidity;BMP_temperature;BMP_pressure;BME280_temperature;BME280_humidity;BME280_pressure;Samples;Min_cycle;Max_cycle;Signal;HPM_P1;HPM_P2
2023/07/04 00:00:57;;;;;;;5.65;2.30;;;13.10;99.90;;;;;;5051752;28;20036;-77
2023/07/04 00:03:22;;;;;;;10.88;2.30;;;13.50;99.90;;;;;;5033395;28;20075;-76
2023/07/04 00:05:48;;;;;;;9.95;1.90;;;13.60;99.90;;;;;;5051490;28;20067;-72
2023/07/04 00:08:14;;;;;;;6.88;2.95;;;13.60;99.90;;;;;;5017349;28;20107;-76
2023/07/04 00:10:41;;;;;;;9.02;2.28;;;13.30;99.90;;;;;;5020816;28;20051;-70
2023/07/04 00:13:07;;;;;;;7.90;2.10;;;12.90;99.90;;;;;;5032622;28;20620;-74
2023/07/04 00:15:33;;;;;;;12.20;2.45;;;13.10;99.90;;;;;;5036709;28;20071;-74
2023/07/04 00:17:58;;;;;;;7.50;2.35;;;13.30;99.90;;;;;;5047691;28;20611;-73
2023/07/04 00:20:25;;;;;;;7.65;1.95;;;13.10;99.90;;;;;;5031959;28;20072;-75
2023/07/04 00:22:52;;;;;;;5.82;1.80;;;12.90;99.90;;;;;;5049404;28;20036;-78
2023/07/04 00:25:18;;;;;;;10.38;2.03;;;13.30;99.90;;;;;;5018954;28;20119;-76
2023/07/04 00:27:45;;;;;;;8.70;3.20;;;13.00;99.90;;;;;;5030241;28;20040;-75
2023/07/04 00:30:12;;;;;;;8.98;1.77;;;13.10;99.90;;;;;;5045254;28;20037;-76
2023/07/04 00:32:38;;;;;;;9.27;2.28;;;13.00;99.90;;;;;;5038327;28;20122;-76
2023/07/04 00:35:04;;;;;;;7.72;2.42;;;12.90;99.90;;;;;;5052258;28;20080;-77
2023/07/04 00:37:31;;;;;;;6.78;1.83;;;13.00;99.90;;;;;;5030543;28;20061;-76
2023/07/04 00:39:57;;;;;;;8.88;2.10;;;12.90;99.90;;;;;;5046683;28;20129;-70
2023/07/04 00:42:22;;;;;;;8.00;1.63;;;13.10;99.90;;;;;;5050583;28;20076;-72
2023/07/04 00:44:54;;;;;;;5.65;1.70;;;13.00;99.90;;;;;;5040088;28;20055;-76
2023/07/04 00:47:32;;;;;;;5.93;2.30;;;13.20;99.90;;;;;;5048792;28;20131;-73
2023/07/04 00:50:07;;;;;;;7.75;2.22;;;13.00;99.90;;;;;;5027437;28;20044;-74
2023/07/04 00:52:37;;;;;;;7.32;2.17;;;13.20;99.90;;;;;;5049276;28;20048;-74
2023/07/04 00:55:09;;;;;;;5.22;1.90;;;12.80;99.90;;;;;;5030160;28;20115;-77
2023/07/04 00:57:37;;;;;;;10.60;2.40;;;12.90;99.90;;;;;;5032457;28;20040;-74
2023/07/04 01:00:23;;;;;;;7.00;1.90;;;13.30;99.90;;;;;;5031405;28;20032;-71
2023/07/04 01:02:59;;;;;;;6.90;2.03;;;12.90;99.90;;;;;;5043487;28;20045;-75
2023/07/04 01:05:41;;;;;;;12.75;2.30;;;13.30;99.90;;;;;;5047431;28;20473;-75
2023/07/04 01:08:12;;;;;;;11.57;2.25;;;13.40;99.90;;;;;;5029527;28;20457;-72
2023/07/04 01:10:42;;;;;;;10.57;1.77;;;12.90;99.90;;;;;;5041731;28;20370;-76
2023/07/04 01:13:33;;;;;;;8.75;2.22;;;13.00;99.90;;;;;;5044210;28;20041;-73
2023/07/04 01:16:10;;;;;;;7.78;2.20;;;13.30;99.90;;;;;;5039829;28;20539;-73
2023/07/04 01:18:38;;;;;;;5.97;2.08;;;13.00;99.90;;;;;;5030467;28;20746;-71
2023/07/04 01:21:06;;;;;;;6.95;2.00;;;13.20;99.90;;;;;;5047046;28;20041;-70
2023/07/04 01:23:59;;;;;;;5.25;1.70;;;12.90;99.90;;;;;;5044657;28;20041;-74
2023/07/04 01:26:46;;;;;;;7.72;2.10;;;12.90;99.90;;;;;;5028721;28;20343;-74
2023/07/04 01:29:14;;;;;;;7.82;1.92;;;13.10;99.90;;;;;;5038986;28;20056;-76
2023/07/04 01:31:46;;;;;;;5.18;2.20;;;12.90;99.90;;;;;;5025727;28;20032;-72
2023/07/04 01:34:14;;;;;;;6.80;2.38;;;13.30;99.90;;;;;;5041560;28;20131;-74
2023/07/04 01:36:41;;;;;;;6.72;2.17;;;13.00;99.90;;;;;;5044713;28;20041;-73
2023/07/04 01:39:14;;;;;;;7.18;2.53;;;13.00;99.90;;;;;;5044837;28;20044;-73
2023/07/04 01:41:45;;;;;;;7.97;2.35;;;13.10;99.90;;;;;;5053829;28;20771;-74
2023/07/04 01:44:12;;;;;;;8.57;2.10;;;13.50;99.90;;;;;;5039117;28;20063;-72
2023/07/04 01:46:38;;;;;;;6.78;2.33;;;13.20;99.90;;;;;;5045944;28;20051;-74
2023/07/04 01:49:04;;;;;;;6.72;2.28;;;13.00;99.90;;;;;;5013013;28;20041;-77
2023/07/04 01:51:39;;;;;;;9.50;2.10;;;13.00;99.90;;;;;;5045418;28;20045;-77
2023/07/04 01:54:07;;;;;;;8.02;2.53;;;13.30;99.90;;;;;;5027981;28;20155;-78
2023/07/04 01:56:35;;;;;;;11.27;2.10;;;13.20;99.90;;;;;;5048446;28;20047;-76
2023/07/04 01:59:01;;;;;;;5.50;2.40;;;13.20;99.90;;;;;;5046995;28;20076;-72
2023/07/04 02:01:27;;;;;;;6.50;2.20;;;13.20;99.90;;;;;;5044854;28;20357;-75
2023/07/04 02:03:53;;;;;;;6.03;2.15;;;13.30;99.90;;;;;;5028933;28;20041;-77
2023/07/04 02:06:19;;;;;;;7.47;2.17;;;13.50;99.90;;;;;;5050656;28;20493;-75
2023/07/04 02:08:45;;;;;;;7.47;2.05;;;13.10;99.90;;;;;;5029816;28;20128;-74
2023/07/04 02:11:12;;;;;;;6.53;2.13;;;13.30;99.90;;;;;;5028847;28;20082;-72
2023/07/04 02:13:38;;;;;;;6.13;2.10;;;13.40;99.90;;;;;;5033788;28;20041;-76
2023/07/04 02:16:04;;;;;;;6.22;2.22;;;13.10;99.90;;;;;;5035365;28;20053;-75
2023/07/04 02:18:30;;;;;;;7.65;2.20;;;13.00;99.90;;;;;;5037213;28;20059;-72
2023/07/04 02:20:56;;;;;;;10.10;2.10;;;13.00;99.90;;;;;;5058705;28;20560;-72
2023/07/04 02:23:21;;;;;;;4.22;2.17;;;13.20;99.90;;;;;;5052062;28;20067;-75
2023/07/04 02:25:48;;;;;;;6.28;2.00;;;13.30;99.90;;;;;;5051522;28;20044;-76
2023/07/04 02:28:14;;;;;;;6.25;2.20;;;13.50;99.90;;;;;;5035349;28;20041;-73
2023/07/04 02:30:40;;;;;;;4.28;2.00;;;13.50;99.90;;;;;;5039783;28;20119;-72
2023/07/04 02:33:06;;;;;;;5.55;2.75;;;13.10;99.90;;;;;;5028775;28;20123;-77
2023/07/04 02:35:32;;;;;;;4.60;2.40;;;13.20;99.90;;;;;;5052382;28;20190;-75
2023/07/04 02:37:58;;;;;;;9.73;3.45;;;13.30;99.90;;;;;;5052449;28;20048;-81
2023/07/04 02:40:24;;;;;;;5.93;2.38;;;13.60;99.90;;;;;;5052799;28;20033;-76
2023/07/04 02:42:49;;;;;;;6.57;2.50;;;13.20;99.90;;;;;;5051606;28;20041;-79
2023/07/04 02:45:15;;;;;;;7.75;1.90;;;13.60;99.90;;;;;;5034734;28;20045;-78
2023/07/04 02:47:41;;;;;;;6.05;2.40;;;13.10;99.90;;;;;;5037569;28;20044;-76
2023/07/04 02:50:07;;;;;;;5.15;2.30;;;13.60;99.90;;;;;;5056353;28;20056;-74
2023/07/04 02:52:33;;;;;;;7.63;2.28;;;13.60;99.90;;;;;;5053434;28;20051;-78
2023/07/04 02:54:58;;;;;;;9.38;2.50;;;13.60;99.90;;;;;;5049440;28;20115;-75
2023/07/04 02:57:24;;;;;;;5.38;2.50;;;13.60;99.90;;;;;;5032284;28;20096;-72
2023/07/04 02:59:50;;;;;;;5.80;2.85;;;13.70;99.90;;;;;;5046110;28;21992;-77
2023/07/04 03:02:17;;;;;;;6.88;2.20;;;13.60;99.90;;;;;;5032052;28;20405;-73
2023/07/04 03:04:43;;;;;;;6.20;2.17;;;13.30;99.90;;;;;;5048713;28;20045;-71
2023/07/04 03:07:09;;;;;;;10.50;2.55;;;13.30;99.90;;;;;;5030054;28;20033;-76
2023/07/04 03:09:35;;;;;;;6.22;2.28;;;13.60;99.90;;;;;;5034300;28;20040;-76
2023/07/04 03:12:01;;;;;;;5.25;2.28;;;13.60;99.90;;;;;;5049703;28;20402;-75
2023/07/04 03:14:27;;;;;;;5.28;2.30;;;13.70;99.90;;;;;;5033530;28;20041;-74
2023/07/04 03:16:52;;;;;;;3.95;2.47;;;13.50;99.90;;;;;;5050946;28;20477;-74
2023/07/04 03:19:19;;;;;;;11.15;2.65;;;14.10;99.90;;;;;;5051969;28;20037;-74
2023/07/04 03:21:45;;;;;;;3.20;2.00;;;14.20;99.90;;;;;;5039191;28;20777;-76
2023/07/04 03:24:10;;;;;;;4.20;2.08;;;13.50;99.90;;;;;;5054045;28;20049;-76
2023/07/04 03:26:37;;;;;;;3.95;2.45;;;13.40;99.90;;;;;;5004340;28;20124;-75
2023/07/04 03:29:03;;;;;;;3.47;1.73;;;14.10;99.90;;;;;;5033509;28;20191;-76
2023/07/04 03:31:29;;;;;;;5.63;2.05;;;14.00;99.90;;;;;;5047128;28;20556;-75
2023/07/04 03:33:55;;;;;;;3.47;1.83;;;14.00;99.90;;;;;;5033688;28;20132;-76
2023/07/04 03:36:20;;;;;;;5.93;2.15;;;14.00;99.90;;;;;;5036271;28;20724;-73
2023/07/04 03:38:46;;;;;;;4.72;1.77;;;14.00;99.90;;;;;;5044557;28;20044;-77
2023/07/04 03:41:12;;;;;;;6.13;2.45;;;13.80;99.90;;;;;;5048091;28;20052;-77
2023/07/04 03:43:39;;;;;;;4.82;2.45;;;13.30;99.90;;;;;;5014067;28;20045;-77
2023/07/04 03:46:05;;;;;;;5.90;2.00;;;13.40;99.90;;;;;;5031458;28;20099;-74
2023/07/04 03:48:31;;;;;;;6.38;2.08;;;13.70;99.90;;;;;;5030538;28;20036;-77
2023/07/04 03:50:57;;;;;;;4.70;2.25;;;13.60;99.90;;;;;;5036240;28;20040;-72
2023/07/04 03:53:23;;;;;;;4.78;1.73;;;13.40;99.90;;;;;;5049048;28;20617;-74
2023/07/04 03:55:49;;;;;;;4.80;1.88;;;13.70;99.90;;;;;;5030920;28;20041;-76
2023/07/04 03:58:17;;;;;;;2.58;1.63;;;13.30;99.90;;;;;;5050343;28;20049;-73
2023/07/04 04:00:49;;;;;;;4.43;1.73;;;13.40;99.90;;;;;;5026647;28;20139;-74
2023/07/04 04:03:15;;;;;;;10.27;2.08;;;13.90;99.90;;;;;;5045321;28;20059;-73
2023/07/04 04:05:44;;;;;;;5.28;1.90;;;13.90;99.90;;;;;;5029547;28;20051;-72
2023/07/04 04:08:09;;;;;;;3.80;1.95;;;13.60;99.90;;;;;;5047391;28;20500;-74
2023/07/04 04:10:35;;;;;;;4.25;1.63;;;13.60;99.90;;;;;;5048626;28;20048;-77
2023/07/04 04:13:01;;;;;;;4.22;2.08;;;13.30;99.90;;;;;;5040106;28;20051;-73
2023/07/04 04:15:27;;;;;;;2.92;1.80;;;13.30;99.90;;;;;;5013758;28;20416;-74
2023/07/04 04:17:55;;;;;;;4.38;2.17;;;13.40;99.90;;;;;;5050897;28;20401;-73
2023/07/04 04:20:21;;;;;;;3.55;1.70;;;13.40;99.90;;;;;;5034990;28;20037;-73
2023/07/04 04:22:47;;;;;;;4.05;1.77;;;13.60;99.90;;;;;;5050265;28;20527;-73
2023/07/04 04:25:16;;;;;;;5.13;1.73;;;13.40;99.90;;;;;;5033446;28;20075;-74
2023/07/04 04:27:43;;;;;;;4.57;1.80;;;13.80;99.90;;;;;;5034660;28;20040;-74
2023/07/04 04:30:10;;;;;;;4.32;1.77;;;13.70;99.90;;;;;;5052542;28;20481;-74
2023/07/04 04:32:40;;;;;;;7.68;2.38;;;13.50;99.90;;;;;;5048556;28;20099;-72
2023/07/04 04:35:10;;;;;;;5.82;2.20;;;14.00;99.90;;;;;;5028056;28;20057;-76
2023/07/04 04:37:37;;;;;;;3.53;2.30;;;14.20;99.90;;;;;;5048727;28;21036;-75
2023/07/04 04:40:07;;;;;;;5.53;2.30;;;13.70;99.90;;;;;;5052659;28;20072;-75
2023/07/04 04:42:34;;;;;;;6.18;2.50;;;14.10;99.90;;;;;;5046100;28;20660;-75
2023/07/04 04:45:01;;;;;;;6.68;2.80;;;13.90;99.90;;;;;;5033650;28;20044;-76
2023/07/04 04:47:32;;;;;;;6.22;2.80;;;14.40;99.90;;;;;;5035954;28;20068;-75
2023/07/04 04:50:17;;;;;;;6.63;2.40;;;14.10;99.90;;;;;;5023375;28;20044;-73
2023/07/04 04:52:44;;;;;;;8.20;3.00;;;14.20;99.90;;;;;;5033438;28;20037;-73
2023/07/04 04:55:10;;;;;;;9.00;2.63;;;14.30;99.90;;;;;;5038397;28;20066;-72
2023/07/04 04:57:35;;;;;;;7.43;2.83;;;14.50;99.90;;;;;;5039127;28;20048;-72
2023/07/04 05:00:02;;;;;;;8.38;3.03;;;14.40;99.90;;;;;;5042369;28;20040;-76
2023/07/04 05:02:31;;;;;;;6.53;3.20;;;14.30;99.90;;;;;;5025581;28;20095;-72
2023/07/04 05:04:59;;;;;;;4.82;2.78;;;14.30;99.90;;;;;;5027335;28;20041;-74
2023/07/04 05:07:25;;;;;;;4.80;2.35;;;14.30;99.90;;;;;;5047195;28;20488;-73
2023/07/04 05:09:55;;;;;;;5.43;2.90;;;15.00;99.90;;;;;;5031146;28;20029;-75
2023/07/04 05:12:21;;;;;;;5.68;2.70;;;15.10;99.90;;;;;;5051859;28;20041;-75
2023/07/04 05:14:46;;;;;;;6.00;2.83;;;15.20;99.90;;;;;;5046251;28;20032;-74
2023/07/04 05:17:12;;;;;;;8.23;3.05;;;14.70;99.90;;;;;;5054834;28;20096;-79
2023/07/04 05:19:38;;;;;;;8.43;2.78;;;14.70;99.90;;;;;;5045166;28;20040;-78
2023/07/04 05:22:04;;;;;;;6.70;3.00;;;15.20;99.90;;;;;;5026306;28;20210;-75
2023/07/04 05:24:33;;;;;;;8.45;3.03;;;15.30;99.90;;;;;;5049561;28;20052;-76
2023/07/04 05:26:58;;;;;;;11.20;3.17;;;15.10;99.90;;;;;;5045791;28;20381;-75
2023/07/04 05:29:24;;;;;;;7.13;3.03;;;14.80;99.90;;;;;;5026338;28;20037;-73
2023/07/04 05:31:50;;;;;;;9.27;3.05;;;15.00;99.90;;;;;;5044327;28;20041;-80
2023/07/04 05:34:15;;;;;;;7.15;3.50;;;15.10;99.90;;;;;;5035500;28;20573;-79
2023/07/04 05:36:42;;;;;;;8.98;3.20;;;15.00;99.90;;;;;;5048856;28;20049;-81
2023/07/04 05:39:08;;;;;;;7.30;3.58;;;14.90;99.90;;;;;;5005661;28;20033;-77
2023/07/04 05:41:36;;;;;;;6.72;3.10;;;15.00;99.90;;;;;;5031471;28;20049;-79
2023/07/04 05:44:04;;;;;;;5.68;3.15;;;15.30;99.90;;;;;;5049314;28;20110;-75
2023/07/04 05:46:30;;;;;;;7.45;2.72;;;15.40;99.90;;;;;;5045006;28;20059;-76
2023/07/04 05:48:57;;;;;;;8.93;3.00;;;15.40;99.90;;;;;;5045775;28;20037;-74
2023/07/04 05:51:24;;;;;;;6.45;3.22;;;15.50;99.90;;;;;;5048021;28;20505;-77
2023/07/04 05:53:51;;;;;;;6.15;3.08;;;15.50;99.90;;;;;;5033381;28;20036;-79
2023/07/04 05:56:26;;;;;;;10.38;3.45;;;15.40;99.90;;;;;;5044822;28;20552;-75
2023/07/04 05:59:01;;;;;;;;;;;15.90;99.90;;;;;;5043585;28;20105;-77
2023/07/04 06:01:43;;;;;;;8.35;2.80;;;15.70;99.90;;;;;;5043229;28;19924;-73
2023/07/04 06:04:10;;;;;;;7.57;2.38;;;15.70;99.90;;;;;;5044980;28;20037;-75
2023/07/04 06:06:41;;;;;;;7.40;2.20;;;15.80;99.90;;;;;;5046183;28;20080;-71
2023/07/04 06:09:13;;;;;;;4.47;2.17;;;15.50;99.90;;;;;;5048962;28;20048;-71
2023/07/04 06:11:45;;;;;;;6.18;2.10;;;15.80;99.90;;;;;;5043031;28;20444;-75
2023/07/04 06:14:16;;;;;;;5.00;2.20;;;15.60;99.90;;;;;;5030067;28;20049;-70
2023/07/04 06:16:42;;;;;;;5.82;2.33;;;15.80;99.90;;;;;;5027910;28;20111;-70
2023/07/04 06:19:08;;;;;;;4.50;2.30;;;16.00;99.90;;;;;;5030297;28;20061;-70
2023/07/04 06:21:35;;;;;;;6.78;2.47;;;15.80;99.90;;;;;;5013478;28;20090;-73
2023/07/04 06:24:00;;;;;;;5.55;2.25;;;16.40;99.90;;;;;;5052537;28;20135;-73
2023/07/04 06:26:31;;;;;;;4.35;2.38;;;16.10;99.90;;;;;;5038443;28;20040;-72
2023/07/04 06:28:57;;;;;;;5.93;2.03;;;16.40;99.90;;;;;;5037283;28;20032;-73
2023/07/04 06:31:25;;;;;;;6.72;2.10;;;16.20;99.90;;;;;;5005016;28;20442;-71
2023/07/04 06:33:51;;;;;;;7.60;2.25;;;16.40;99.90;;;;;;5050714;28;20061;-73
2023/07/04 06:36:17;;;;;;;6.72;2.33;;;16.20;99.90;;;;;;5034815;28;20048;-76
2023/07/04 06:38:43;;;;;;;4.65;2.13;;;16.60;99.90;;;;;;5045535;28;20116;-74
2023/07/04 06:41:14;;;;;;;4.55;1.70;;;16.30;99.90;;;;;;5010776;28;20169;-75
2023/07/04 06:43:44;;;;;;;5.45;1.90;;;16.40;99.90;;;;;;5037925;28;20055;-75
2023/07/04 06:46:11;;;;;;;8.65;1.80;;;16.80;99.90;;;;;;5038619;28;20415;-71
2023/07/04 06:48:37;;;;;;;4.28;1.80;;;16.70;99.90;;;;;;5061893;28;20036;-75
2023/07/04 06:51:08;;;;;;;5.03;1.55;;;16.70;99.90;;;;;;5039624;28;21475;-73
2023/07/04 06:53:35;;;;;;;5.22;1.40;;;16.80;99.90;;;;;;5024136;28;20140;-73
2023/07/04 06:56:19;;;;;;;3.88;1.67;;;16.90;99.90;;;;;;5047161;28;20037;-75
2023/07/04 06:58:50;;;;;;;6.70;1.52;;;16.70;99.90;;;;;;5042712;28;20072;-70
2023/07/04 07:01:17;;;;;;;5.55;1.58;;;17.20;99.90;;;;;;5050514;28;20110;-73
2023/07/04 07:03:43;;;;;;;3.45;1.83;;;17.10;99.90;;;;;;5035654;28;20037;-75
2023/07/04 07:06:10;;;;;;;7.13;1.52;;;16.70;99.90;;;;;;5051941;28;20043;-73
2023/07/04 07:08:37;;;;;;;4.28;1.30;;;17.20;99.90;;;;;;5048362;28;20162;-72
2023/07/04 07:11:05;;;;;;;7.32;1.85;;;17.00;99.90;;;;;;5033193;28;20044;-75
2023/07/04 07:13:31;;;;;;;7.15;1.63;;;17.00;99.90;;;;;;5051302;28;20037;-75
2023/07/04 07:16:16;;;;;;;4.65;1.73;;;17.60;99.90;;;;;;5049082;28;20037;-72
2023/07/04 07:18:44;;;;;;;5.45;1.60;;;17.60;99.90;;;;;;5049827;28;20047;-72
2023/07/04 07:21:12;;;;;;;3.58;1.60;;;17.70;99.90;;;;;;5036096;28;20174;-73
2023/07/04 07:23:39;;;;;;;6.93;1.45;;;17.70;99.90;;;;;;5055099;28;20041;-74
2023/07/04 07:26:08;;;;;;;3.95;1.40;;;17.90;99.90;;;;;;5030925;28;20135;-72
2023/07/04 07:28:39;;;;;;;4.13;1.30;;;17.80;99.90;;;;;;5016413;28;20037;-73
2023/07/04 07:31:20;;;;;;;3.85;1.60;;;17.70;99.90;;;;;;5033435;28;20041;-74
2023/07/04 07:33:48;;;;;;;7.65;2.03;;;17.40;99.90;;;;;;5029894;28;20051;-75
2023/07/04 07:36:21;;;;;;;4.28;1.70;;;17.50;99.90;;;;;;5050188;28;20056;-77
2023/07/04 07:38:51;;;;;;;5.03;1.60;;;17.80;99.90;;;;;;5031230;28;20080;-74
2023/07/04 07:41:19;;;;;;;5.05;1.55;;;18.10;99.90;;;;;;5030282;28;20041;-75
2023/07/04 07:43:45;;;;;;;3.47;1.30;;;18.10;99.90;;;;;;5042194;28;20098;-72
2023/07/04 07:46:14;;;;;;;3.28;1.30;;;17.90;99.90;;;;;;5032471;28;20037;-74
2023/07/04 07:48:40;;;;;;;3.92;1.30;;;18.10;99.90;;;;;;5048922;28;20553;-75
2023/07/04 07:51:08;;;;;;;7.13;1.90;;;18.00;99.90;;;;;;5032949;28;20048;-76
2023/07/04 07:53:38;;;;;;;2.92;1.38;;;17.70;99.90;;;;;;5016256;28;20045;-75
2023/07/04 07:56:06;;;;;;;4.05;1.27;;;18.10;99.90;;;;;;5032883;28;20045;-72
2023/07/04 07:58:33;;;;;;;5.72;1.83;;;18.30;99.90;;;;;;5049001;28;20056;-75
2023/07/04 08:00:58;;;;;;;3.72;1.30;;;18.10;99.90;;;;;;5032359;28;20068;-72
2023/07/04 08:03:24;;;;;;;6.40;1.48;;;18.20;99.90;;;;;;5015944;28;20083;-75
2023/07/04 08:05:50;;;;;;;8.70;1.50;;;18.40;99.90;;;;;;4999029;28;20368;-76
2023/07/04 08:08:16;;;;;;;3.88;1.48;;;18.30;99.90;;;;;;5049164;28;20425;-74
2023/07/04 08:10:43;;;;;;;4.40;1.27;;;18.40;99.90;;;;;;5046546;28;20047;-76
2023/07/04 08:13:10;;;;;;;2.65;1.20;;;18.60;99.90;;;;;;5049492;28;20469;-73
2023/07/04 08:15:36;;;;;;;4.72;1.52;;;18.50;99.90;;;;;;5032020;28;20037;-75
2023/07/04 08:18:07;;;;;;;4.43;1.60;;;18.70;99.90;;;;;;5026750;28;20056;-72
2023/07/04 08:20:33;;;;;;;2.72;1.05;;;18.50;99.90;;;;;;5048431;28;20102;-73
2023/07/04 08:22:59;;;;;;;3.15;1.10;;;18.60;99.90;;;;;;5048966;28;20071;-76
2023/07/04 08:25:25;;;;;;;3.35;1.17;;;18.60;99.90;;;;;;5032528;28;20442;-76
2023/07/04 08:27:52;;;;;;;2.75;1.38;;;18.70;99.90;;;;;;5048352;28;20036;-73
2023/07/04 08:30:18;;;;;;;4.15;1.48;;;18.70;99.90;;;;;;5048742;28;20114;-75
2023/07/04 08:32:43;;;;;;;4.00;1.45;;;18.70;99.90;;;;;;5048157;28;20044;-78
2023/07/04 08:35:09;;;;;;;6.18;1.30;;;19.00;99.90;;;;;;5031840;28;20056;-74
2023/07/04 08:37:35;;;;;;;2.47;1.38;;;19.00;99.90;;;;;;5047274;28;20033;-73
2023/07/04 08:40:01;;;;;;;3.22;1.33;;;18.80;99.90;;;;;;5030673;28;20052;-78
2023/07/04 08:42:29;;;;;;;5.47;1.58;;;18.90;99.90;;;;;;5047443;28;20131;-75
2023/07/04 08:44:56;;;;;;;3.55;1.30;;;18.80;99.90;;;;;;5030207;28;20043;-77
2023/07/04 08:47:26;;;;;;;4.05;1.25;;;18.90;99.90;;;;;;5047013;28;20140;-76
2023/07/04 08:50:16;;;;;;;4.80;1.25;;;18.80;99.90;;;;;;5046415;28;20424;-73
2023/07/04 08:52:48;;;;;;;5.90;1.50;;;18.80;99.90;;;;;;5047047;28;20045;-75
2023/07/04 08:55:15;;;;;;;4.88;1.40;;;18.80;99.90;;;;;;5029670;28;20064;-76
2023/07/04 08:58:02;;;;;;;6.78;1.60;;;19.10;99.90;;;;;;5046584;28;20075;-75
2023/07/04 09:00:45;;;;;;;4.90;1.60;;;19.30;99.90;;;;;;5024522;28;20186;-76
2023/07/04 09:03:48;;;;;;;5.10;1.60;;;19.40;99.90;;;;;;5031850;28;20045;-74
2023/07/04 09:06:36;;;;;;;4.95;1.50;;;19.80;99.90;;;;;;5009745;28;20136;-74
2023/07/04 09:09:31;;;;;;;3.38;1.23;;;20.20;99.90;;;;;;5027715;28;20049;-76
2023/07/04 09:11:57;;;;;;;;;;;20.10;99.90;;;;;;5025077;28;20071;-76
2023/07/04 09:14:38;;;;;;;3.72;1.52;;;20.00;99.90;;;;;;5047199;28;20447;-75
2023/07/04 09:17:17;;;;;;;6.45;1.80;;;20.40;99.90;;;;;;5030661;28;20413;-75
2023/07/04 09:19:46;;;;;;;3.80;1.40;;;20.50;99.90;;;;;;5039415;28;20068;-73
2023/07/04 09:22:12;;;;;;;6.07;1.83;;;20.90;99.90;;;;;;5047017;28;20055;-79
2023/07/04 09:24:38;;;;;;;3.15;1.40;;;21.30;99.90;;;;;;5046853;28;20044;-77
2023/07/04 09:27:04;;;;;;;8.38;2.03;;;21.00;99.90;;;;;;5030388;28;20102;-76
2023/07/04 09:29:30;;;;;;;7.18;1.90;;;20.60;99.90;;;;;;5046848;28;20047;-73
2023/07/04 09:32:00;;;;;;;4.20;1.80;;;20.90;99.90;;;;;;5030609;28;20036;-74
2023/07/04 09:34:38;;;;;;;4.75;1.55;;;21.20;99.90;;;;;;5048806;28;20425;-76
2023/07/04 09:37:14;;;;;;;7.70;2.10;;;20.80;99.90;;;;;;5048308;28;20111;-75
2023/07/04 09:39:48;;;;;;;7.32;2.20;;;20.70;99.90;;;;;;5047767;28;20045;-76
2023/07/04 09:42:19;;;;;;;9.30;2.15;;;21.00;99.90;;;;;;5048482;28;20096;-77
2023/07/04 09:44:46;;;;;;;8.15;1.75;;;20.40;99.90;;;;;;5047601;28;20552;-78
2023/07/04 09:47:30;;;;;;;6.53;2.17;;;20.20;99.90;;;;;;5030761;28;20122;-78
2023/07/04 09:50:14;;;;;;;5.72;2.05;;;20.40;99.90;;;;;;5047357;28;20388;-79
2023/07/04 09:52:41;;;;;;;5.07;2.00;;;20.70;99.90;;;;;;5047294;28;20107;-75
2023/07/04 09:55:24;;;;;;;10.75;2.38;;;21.00;99.90;;;;;;5030658;28;20094;-76
2023/07/04 09:57:50;;;;;;;12.63;3.05;;;21.10;99.90;;;;;;5046600;28;20045;-80
2023/07/04 10:00:34;;;;;;;7.85;2.00;;;21.50;99.90;;;;;;5047147;28;20047;-78
2023/07/04 10:03:04;;;;;;;;;;;21.50;99.90;;;;;;5012001;28;20048;-76
2023/07/04 10:05:35;;;;;;;4.80;1.95;;;21.10;99.90;;;;;;5046480;28;19920;-75
2023/07/04 10:08:06;;;;;;;5.72;1.77;;;20.70;99.90;;;;;;5030433;28;20207;-74
2023/07/04 10:10:36;;;;;;;5.75;1.83;;;20.40;99.90;;;;;;5047094;28;20076;-78
2023/07/04 10:13:05;;;;;;;4.60;1.70;;;21.10;99.90;;;;;;5026138;28;20052;-76
2023/07/04 10:15:41;;;;;;;7.97;1.70;;;21.40;99.90;;;;;;5013954;28;20037;-74
2023/07/04 10:18:22;;;;;;;5.60;1.52;;;21.20;99.90;;;;;;5046677;28;20040;-73
2023/07/04 10:20:53;;;;;;;9.02;1.58;;;21.40;99.90;;;;;;5046660;28;20040;-75
2023/07/04 10:23:21;;;;;;;6.65;1.58;;;20.70;99.90;;;;;;5047432;28;20052;-77
2023/07/04 10:25:48;;;;;;;3.50;1.23;;;20.30;99.90;;;;;;5029636;28;20051;-75
2023/07/04 10:28:17;;;;;;;4.82;1.70;;;20.80;99.90;;;;;;5047012;28;20477;-79
2023/07/04 10:30:49;;;;;;;4.63;1.70;;;21.20;99.90;;;;;;5029455;28;20143;-77
2023/07/04 10:33:24;;;;;;;2.58;1.20;;;22.10;99.90;;;;;;5014766;28;20041;-75
2023/07/04 10:35:51;;;;;;;3.05;1.70;;;22.10;99.90;;;;;;5033043;28;20703;-77
2023/07/04 10:38:50;;;;;;;4.88;1.88;;;22.00;99.90;;;;;;5034016;28;20040;-77
2023/07/04 10:41:34;;;;;;;6.25;1.75;;;22.30;99.90;;;;;;5034690;28;20052;-76
2023/07/04 10:44:05;;;;;;;;;;;21.90;99.90;;;;;;5051024;28;20103;-76
2023/07/04 10:46:46;;;;;;;3.47;1.40;;;22.00;99.90;;;;;;5050356;28;19921;-75
2023/07/04 10:49:21;;;;;;;5.20;1.80;;;22.80;99.90;;;;;;5050565;28;20052;-80
2023/07/04 10:51:53;;;;;;;3.60;1.67;;;23.00;99.90;;;;;;5050079;28;20735;-76
2023/07/04 10:54:19;;;;;;;3.88;1.52;;;23.50;99.90;;;;;;5050553;28;20041;-76
2023/07/04 10:56:51;;;;;;;4.82;1.48;;;23.10;99.90;;;;;;5050175;28;20048;-78
2023/07/04 10:59:33;;;;;;;4.43;1.75;;;22.90;99.90;;;;;;5052099;28;20386;-76
2023/07/04 11:02:22;;;;;;;4.53;1.85;;;22.20;99.90;;;;;;5033535;28;20037;-77
2023/07/04 11:04:49;;;;;;;5.28;1.85;;;22.80;99.90;;;;;;5033626;28;20040;-78
2023/07/04 11:07:25;;;;;;;3.83;1.42;;;23.20;99.90;;;;;;5050304;28;20102;-79
2023/07/04 11:10:02;;;;;;;5.50;1.80;;;22.80;99.90;;;;;;5043767;28;20387;-77
2023/07/04 11:12:29;;;;;;;5.70;1.70;;;22.20;99.90;;;;;;5033998;28;20432;-79
2023/07/04 11:15:20;;;;;;;4.45;1.85;;;21.50;89.90;;;;;;5033778;28;20484;-77
2023/07/04 11:17:46;;;;;;;4.70;1.60;;;21.40;99.90;;;;;;5050560;28;20052;-76
2023/07/04 11:20:21;;;;;;;3.17;1.70;;;20.90;99.90;;;;;;5050206;28;20068;-77
2023/07/04 11:22:50;;;;;;;2.88;1.30;;;20.60;99.90;;;;;;5033076;28;20044;-77
2023/07/04 11:25:46;;;;;;;6.05;1.42;;;21.30;99.90;;;;;;5039762;28;20561;-76
2023/07/04 11:28:36;;;;;;;6.70;1.70;;;22.00;99.90;;;;;;5044215;28;20132;-78
2023/07/04 11:31:19;;;;;;;5.40;1.65;;;22.50;99.90;;;;;;5049451;28;20048;-76
2023/07/04 11:33:54;;;;;;;4.00;1.40;;;21.80;96.90;;;;;;5049296;28;20668;-79
2023/07/04 11:36:33;;;;;;;7.35;1.35;;;21.70;84.60;;;;;;5059508;28;20048;-77
2023/07/04 11:39:21;;;;;;;7.72;1.95;;;22.40;97.60;;;;;;5048789;28;20071;-75
2023/07/04 11:41:50;;;;;;;6.50;1.75;;;22.40;67.50;;;;;;5032303;28;20041;-75
2023/07/04 11:44:29;;;;;;;5.68;1.58;;;22.90;71.60;;;;;;5049948;28;20048;-78
2023/07/04 11:47:03;;;;;;;4.35;2.10;;;22.50;46.40;;;;;;5061315;28;20069;-78
2023/07/04 11:49:31;;;;;;;6.43;1.77;;;23.00;76.50;;;;;;5032750;28;20682;-77
2023/07/04 11:52:16;;;;;;;7.63;2.13;;;23.40;62.40;;;;;;5031860;28;20090;-77
2023/07/04 11:54:43;;;;;;;8.25;1.73;;;23.60;35.20;;;;;;5027216;28;20085;-78
2023/07/04 11:57:09;;;;;;;4.07;1.80;;;23.20;49.30;;;;;;5033013;28;20377;-80
2023/07/04 11:59:43;;;;;;;3.47;1.63;;;23.60;45.20;;;;;;5032886;28;20124;-77
2023/07/04 12:02:29;;;;;;;;;;;24.00;32.90;;;;;;5032944;28;20103;-74
2023/07/04 12:04:55;;;;;;;3.95;1.60;;;23.70;1.00;;;;;;5048836;28;19960;-77
2023/07/04 12:07:44;;;;;;;5.60;1.80;;;24.00;22.20;;;;;;5048895;28;20056;-77
2023/07/04 12:10:17;;;;;;;7.65;2.05;;;23.90;21.50;;;;;;5032314;28;20047;-82
2023/07/04 12:12:44;;;;;;;4.10;1.77;;;23.60;16.00;;;;;;5048946;28;20069;-77
2023/07/04 12:15:28;;;;;;;5.85;1.75;;;22.80;32.10;;;;;;5032412;28;20044;-76
2023/07/04 12:17:58;;;;;;;5.07;1.73;;;22.50;28.30;;;;;;5042202;28;20559;-76
2023/07/04 12:20:27;;;;;;;8.15;2.00;;;22.40;21.10;;;;;;5048930;28;20427;-76
2023/07/04 12:22:53;;;;;;;5.30;1.52;;;22.10;21.10;;;;;;5025049;28;20037;-75
2023/07/04 12:25:22;;;;;;;5.72;1.90;;;21.70;12.50;;;;;;5025963;28;20049;-76
2023/07/04 12:27:48;;;;;;;3.88;1.60;;;22.10;7.20;;;;;;5048213;28;20049;-77
2023/07/04 12:30:14;;;;;;;7.15;1.60;;;22.60;2.20;;;;;;5032234;28;20401;-76
2023/07/04 12:32:41;;;;;;;5.20;1.98;;;23.00;1.00;;;;;;5031802;28;20072;-79
2023/07/04 12:35:12;;;;;;;5.82;1.67;;;22.90;1.00;;;;;;5048043;28;20056;-76
2023/07/04 12:37:42;;;;;;;5.28;1.60;;;23.00;1.00;;;;;;5048420;28;20056;-75
2023/07/04 12:40:16;;;;;;;4.80;1.80;;;22.30;1.00;;;;;;5031378;28;20119;-77
2023/07/04 12:42:43;;;;;;;5.88;2.00;;;22.20;1.00;;;;;;5048501;28;20688;-75
2023/07/04 12:45:15;;;;;;;6.20;2.47;;;22.20;3.60;;;;;;5048411;28;20048;-77
2023/07/04 12:47:44;;;;;;;6.00;1.83;;;22.10;11.30;;;;;;5031623;28;20526;-76
2023/07/04 12:50:12;;;;;;;4.05;1.70;;;22.10;2.00;;;;;;5041426;28;20055;-76
2023/07/04 12:52:39;;;;;;;6.13;1.70;;;22.50;8.20;;;;;;5048360;28;20434;-80
2023/07/04 12:55:10;;;;;;;4.55;1.70;;;22.60;2.80;;;;;;5031044;28;20049;-78
2023/07/04 12:57:37;;;;;;;4.70;1.65;;;22.60;1.00;;;;;;5047993;28;20347;-76
2023/07/04 13:00:19;;;;;;;6.65;1.80;;;22.70;1.00;;;;;;5047841;28;20044;-75
2023/07/04 13:02:48;;;;;;;5.05;1.73;;;23.30;1.00;;;;;;5031437;28;20056;-79